Mercury — 3FFC7 — position and weather

sailwx.info

Track history (hours):
 
Tides and Currents Weather Stations Pressure Air Temp Water Temp Dewpoint Dewpoint Depression Visibility Wind Speed Wind Dir Waves Ship Positions

Mercury

Operator: Royal Caribbean Cruises Ltd

Last reported at 2017-Aug-19 17:50 UTC. Time now 2017-Aug-23 08:01 UTC.
Position N 35°31' W 131°44'.

Length 199 m; draft 7.4 m.

Type: Cargo ship. MMSI: 371862000.

Date/timePositionNaut miles runAvg speedWind from/ knotsBaromVisibWave heightAir tempDewpointWater temp
2017-Aug-19 17:50N 35°31' W 131°44'23516.9
2017-Aug-19 03:54N 33°34' W 127°37'13016.8
2017-Aug-18 20:10N 32°25' W 125°25'12916.8
2017-Aug-18 12:29N 31°16' W 123°17'916.4
2017-Aug-18 11:58N 31°11' W 123°09'816.7
2017-Aug-18 11:30N 31°07' W 123°02'816.4
2017-Aug-18 11:00N 31°02' W 122°54'1016.5
2017-Aug-18 10:24N 30°57' W 122°44'716.6
2017-Aug-18 09:59N 30°53' W 122°37'816.6
2017-Aug-18 09:30N 30°48' W 122°30'816.7
2017-Aug-18 09:00N 30°43' W 122°22'1016.5
2017-Aug-18 08:25N 30°38' W 122°12'716.2
2017-Aug-18 07:59N 30°34' W 122°06'1216.8
2017-Aug-18 07:17N 30°28' W 121°54'616.0
2017-Aug-18 06:53N 30°28' W 121°47'1116.8
2017-Aug-18 06:15N 30°30' W 121°35'416.9
2017-Aug-18 06:00N 30°31' W 121°30'1217.0
2017-Aug-18 05:16N 30°34' W 121°16'516.8
2017-Aug-18 05:00N 30°35' W 121°11'817.0
2017-Aug-18 04:30N 30°36' W 121°01'917.1
2017-Aug-18 03:58N 30°38' W 120°51'816.8
2017-Aug-18 03:30N 30°40' W 120°42'916.9
2017-Aug-18 03:00N 30°42' W 120°32'1016.8
2017-Aug-18 02:26N 30°44' W 120°22'716.8
2017-Aug-18 02:00N 30°45' W 120°13'917.1
2017-Aug-18 01:29N 30°47' W 120°03'817.0
2017-Aug-18 01:00N 30°49' W 119°54'917.1
2017-Aug-18 00:30N 30°51' W 119°44'816.9
2017-Aug-18 00:00N 30°53' W 119°34'816.8
2017-Aug-17 23:30N 30°55' W 119°25'917.3
2017-Aug-17 23:00N 30°56' W 119°15'917.5
2017-Aug-17 22:30N 30°58' W 119°05'917.5
2017-Aug-17 22:00N 30°60' W 118°55'917.5
2017-Aug-17 21:30N 31°02' W 118°45'917.7
2017-Aug-17 21:00N 31°04' W 118°35'917.1
2017-Aug-17 20:30N 31°11' W 118°29'917.6
2017-Aug-17 20:00N 31°18' W 118°23'917.8
2017-Aug-17 19:30N 31°25' W 118°17'917.8
2017-Aug-17 19:00N 31°32' W 118°11'917.8
2017-Aug-17 18:30N 31°39' W 118°04'917.4
2017-Aug-17 18:00N 31°46' W 117°58'917.3
2017-Aug-17 17:30N 31°53' W 117°52'917.5
2017-Aug-17 17:00N 32°00' W 117°46'917.4
2017-Aug-17 16:30N 32°07' W 117°40'917.3
2017-Aug-17 16:00N 32°14' W 117°34'714.9
2017-Aug-17 15:30N 32°20' W 117°29'611.0
2017-Aug-17 15:00N 32°25' W 117°25'510.5
2017-Aug-17 14:30N 32°29' W 117°21'510.7
2017-Aug-17 14:00N 32°33' W 117°17'510.6
2017-Aug-17 13:30N 32°38' W 117°14'4 8.5
2017-Aug-17 13:00N 32°42' W 117°14'4 7.6
2017-Aug-17 12:30N 32°42' W 117°09'3 6.1
2017-Aug-17 12:00N 32°39' W 117°07'0 0.0
2017-Aug-17 11:30N 32°39' W 117°07'0 0.0
2017-Aug-17 11:00N 32°39' W 117°07'0 0.0
2017-Aug-17 10:28N 32°39' W 117°07'0 0.0
2017-Aug-17 09:58N 32°39' W 117°07'0 0.0
2017-Aug-17 09:28N 32°39' W 117°07'0 0.0
2017-Aug-17 08:58N 32°39' W 117°07'0 0.0
2017-Aug-17 08:28N 32°39' W 117°07'0 0.0
2017-Aug-17 07:58N 32°39' W 117°07'0 0.0
2017-Aug-17 07:28N 32°39' W 117°07'0 0.0
2017-Aug-17 06:55N 32°39' W 117°07'0 0.0
2017-Aug-17 06:25N 32°39' W 117°07'0 0.0
2017-Aug-17 05:58N 32°39' W 117°07'0 0.0
2017-Aug-17 05:28N 32°39' W 117°07'0 0.0
2017-Aug-17 04:58N 32°39' W 117°07'0 0.0
2017-Aug-17 04:28N 32°39' W 117°07'0 0.0
2017-Aug-17 03:58N 32°39' W 117°07'0 0.0
2017-Aug-17 03:28N 32°39' W 117°07'0 0.0
2017-Aug-17 02:58N 32°39' W 117°07'0 0.0
2017-Aug-17 02:28N 32°39' W 117°07'0 0.0
2017-Aug-17 01:58N 32°39' W 117°07'0 0.0
2017-Aug-17 01:25N 32°39' W 117°07'0 0.0
2017-Aug-17 00:58N 32°39' W 117°07'0 0.0
2017-Aug-17 00:28N 32°39' W 117°07'0 0.0
2017-Aug-16 23:55N 32°39' W 117°07'0 0.0
2017-Aug-16 23:28N 32°39' W 117°07'0 0.0
2017-Aug-16 22:58N 32°39' W 117°07'0 0.1
2017-Aug-16 22:30N 32°39' W 117°07'2 4.7
2017-Aug-16 22:00N 32°41' W 117°09'4 8.8
2017-Aug-16 21:30N 32°42' W 117°14'4 8.9
2017-Aug-16 21:00N 32°37' W 117°13'1 2.0
2017-Aug-16 20:31N 32°37' W 117°12'1 2.3
2017-Aug-16 20:00N 32°38' W 117°12'0 0.0
2017-Aug-16 19:30N 32°38' W 117°12'0 0.0
2017-Aug-16 19:00N 32°38' W 117°12'0 0.0
2017-Aug-16 18:30N 32°38' W 117°12'0 0.0
2017-Aug-16 18:00N 32°38' W 117°12'0 0.0
2017-Aug-16 17:30N 32°38' W 117°12'0 0.0
2017-Aug-16 17:00N 32°38' W 117°12'0 0.0
2017-Aug-16 16:30N 32°38' W 117°12'0 0.0
2017-Aug-16 16:00N 32°38' W 117°12'0 0.0
2017-Aug-16 15:30N 32°38' W 117°12'0 0.0
2017-Aug-16 15:00N 32°38' W 117°12'0 0.0
2017-Aug-16 14:30N 32°38' W 117°12'0 0.0
2017-Aug-16 14:00N 32°38' W 117°12'0 0.0
2017-Aug-16 13:30N 32°38' W 117°12'0 0.0
2017-Aug-16 13:00N 32°38' W 117°12'0 0.1
2017-Aug-16 12:24N 32°38' W 117°12'0 0.0
2017-Aug-16 12:00N 32°38' W 117°12'0 0.0
2017-Aug-16 11:30N 32°38' W 117°12'0 0.0
2017-Aug-16 11:00N 32°38' W 117°12'0 0.0
2017-Aug-16 10:30N 32°38' W 117°12'0 0.0
2017-Aug-16 10:00N 32°38' W 117°12'0 0.0
2017-Aug-16 09:30N 32°38' W 117°12'0 0.0
2017-Aug-16 09:00N 32°38' W 117°12'0 0.1
2017-Aug-16 08:27N 32°38' W 117°12'0 0.0
2017-Aug-16 08:00N 32°38' W 117°12'0 0.0
2017-Aug-16 07:30N 32°38' W 117°12'0 0.0
2017-Aug-16 07:00N 32°38' W 117°12'0 0.0
2017-Aug-16 06:30N 32°38' W 117°12'0 0.0
2017-Aug-16 05:57N 32°38' W 117°12'0 0.0
2017-Aug-16 05:30N 32°38' W 117°12'0 0.0
2017-Aug-16 05:00N 32°38' W 117°12'0 0.0
2017-Aug-16 04:30N 32°38' W 117°12'0 0.0
2017-Aug-16 04:00N 32°38' W 117°12'0 0.0
2017-Aug-16 03:30N 32°38' W 117°12'0 0.0
2017-Aug-16 03:00N 32°38' W 117°12'0 0.0
2017-Aug-16 02:30N 32°38' W 117°12'0 0.0
2017-Aug-16 02:00N 32°38' W 117°12'0 0.0
2017-Aug-16 01:27N 32°38' W 117°12'0 0.0
2017-Aug-16 01:00N 32°38' W 117°12'0 0.0
2017-Aug-16 00:30N 32°38' W 117°12'0 0.1
2017-Aug-15 23:54N 32°38' W 117°12'0 0.0
2017-Aug-15 23:30N 32°38' W 117°12'0 0.0
2017-Aug-15 23:00N 32°38' W 117°12'0 0.0
2017-Aug-15 22:30N 32°38' W 117°12'0 0.0
2017-Aug-15 22:00N 32°38' W 117°12'0 0.0
2017-Aug-15 21:30N 32°38' W 117°12'0 0.0
2017-Aug-15 21:00N 32°38' W 117°12'0 0.0
2017-Aug-15 20:27N 32°38' W 117°12'0 0.1
2017-Aug-15 20:00N 32°38' W 117°12'0 0.0
2017-Aug-15 19:30N 32°38' W 117°12'0 0.0
2017-Aug-15 19:00N 32°38' W 117°12'0 0.0
2017-Aug-15 18:30N 32°38' W 117°12'0 0.0
2017-Aug-15 18:00N 32°38' W 117°12'0 0.0
2017-Aug-15 17:30N 32°38' W 117°12'0 0.0
2017-Aug-15 17:00N 32°38' W 117°12'0 0.0
2017-Aug-15 16:30N 32°38' W 117°12'0 0.0
2017-Aug-15 16:00N 32°38' W 117°12'0 0.0
2017-Aug-15 15:30N 32°38' W 117°12'0 0.0
2017-Aug-15 15:00N 32°38' W 117°12'0 0.0
2017-Aug-15 14:30N 32°38' W 117°12'0 0.0
2017-Aug-15 14:00N 32°38' W 117°12'0 0.0
2017-Aug-15 13:30N 32°38' W 117°12'0 0.0
2017-Aug-15 12:48N 32°38' W 117°12'0 0.0
2017-Aug-15 12:30N 32°38' W 117°12'0 0.1
2017-Aug-15 12:00N 32°38' W 117°12'0 0.0
2017-Aug-15 11:30N 32°38' W 117°12'0 0.0
2017-Aug-15 11:00N 32°38' W 117°12'0 0.1
2017-Aug-15 10:30N 32°38' W 117°12'0 0.0
2017-Aug-15 10:00N 32°38' W 117°12'0 0.0
2017-Aug-15 09:30N 32°38' W 117°12'0 0.0
2017-Aug-15 09:00N 32°38' W 117°12'0 0.0
2017-Aug-15 08:30N 32°38' W 117°12'0 0.0
2017-Aug-15 08:00N 32°38' W 117°12'0 0.0
2017-Aug-15 07:30N 32°38' W 117°12'0 0.0
2017-Aug-15 07:00N 32°38' W 117°12'0 0.0
2017-Aug-15 06:30N 32°38' W 117°12'0 0.0
2017-Aug-15 06:00N 32°38' W 117°12'0 0.0
2017-Aug-15 05:30N 32°38' W 117°12'0 0.0
2017-Aug-15 05:00N 32°38' W 117°12'0 0.0
2017-Aug-15 04:30N 32°38' W 117°12'0 0.0
2017-Aug-15 04:00N 32°38' W 117°12'0 0.0
2017-Aug-15 03:30N 32°38' W 117°12'0 0.0
2017-Aug-15 03:00N 32°38' W 117°12'0 0.0
2017-Aug-15 02:30N 32°38' W 117°12'0 0.0
2017-Aug-15 02:00N 32°38' W 117°12'0 0.0
2017-Aug-15 01:30N 32°38' W 117°12'0 0.0
2017-Aug-15 01:00N 32°38' W 117°12'0 0.0
2017-Aug-15 00:30N 32°38' W 117°12'0 0.0
2017-Aug-15 00:00N 32°38' W 117°12'0 0.0
2017-Aug-14 23:30N 32°38' W 117°12'0 0.0
2017-Aug-14 23:00N 32°38' W 117°12'0 0.0
2017-Aug-14 22:30N 32°38' W 117°12'0 0.0
2017-Aug-14 22:00N 32°38' W 117°12'0 0.0
2017-Aug-14 21:30N 32°38' W 117°12'0 0.0
2017-Aug-14 21:00N 32°38' W 117°12'0 0.0
2017-Aug-14 20:30N 32°38' W 117°12'0 0.0
2017-Aug-14 20:00N 32°38' W 117°12'0 0.0
2017-Aug-14 19:30N 32°38' W 117°12'0 0.0
2017-Aug-14 19:00N 32°38' W 117°12'0 0.0
2017-Aug-14 18:30N 32°38' W 117°12'0 0.0
2017-Aug-14 18:00N 32°38' W 117°12'0 0.0
2017-Aug-14 17:30N 32°38' W 117°12'0 0.0
2017-Aug-14 17:00N 32°38' W 117°12'0 0.0
2017-Aug-14 16:30N 32°38' W 117°12'0 0.0
2017-Aug-14 16:00N 32°38' W 117°12'0 0.0
2017-Aug-14 15:30N 32°38' W 117°12'0 0.0
2017-Aug-14 15:00N 32°38' W 117°12'0 0.0
2017-Aug-14 14:30N 32°38' W 117°12'0 0.1
2017-Aug-14 14:00N 32°38' W 117°12'0 0.0
2017-Aug-14 13:30N 32°38' W 117°12'0 0.2
2017-Aug-14 13:00N 32°38' W 117°12'4 8.0
2017-Aug-14 12:30N 32°37' W 117°16'611.2
2017-Aug-14 12:00N 32°38' W 117°23'611.9
2017-Aug-14 11:30N 32°38' W 117°30'611.6
2017-Aug-14 11:00N 32°38' W 117°37'611.9
2017-Aug-14 10:30N 32°39' W 117°44'815.3
2017-Aug-14 10:00N 32°40' W 117°53'816.6
2017-Aug-14 09:31N 32°38' W 118°02'816.9
2017-Aug-14 09:01N 32°38' W 118°12'816.8
2017-Aug-14 08:31N 32°38' W 118°22'816.9
2017-Aug-14 08:01N 32°38' W 118°32'816.9
2017-Aug-14 07:31N 32°38' W 118°42'917.2
2017-Aug-14 07:01N 32°38' W 118°53'917.0
2017-Aug-14 06:30N 32°38' W 119°03'917.1
2017-Aug-14 06:00N 32°38' W 119°13'917.6
2017-Aug-14 05:30N 32°38' W 119°23'917.5
2017-Aug-14 05:00N 32°38' W 119°34'917.3
2017-Aug-14 04:31N 32°38' W 119°44'917.4
2017-Aug-14 04:00N 32°38' W 119°54'917.1
2017-Aug-14 03:30N 32°38' W 120°04'816.4
2017-Aug-14 03:01N 32°38' W 120°14'815.5
2017-Aug-14 02:30N 32°38' W 120°23'3 6.7
2017-Aug-14 02:00N 32°38' W 120°27'714.7
2017-Aug-14 01:30N 32°41' W 120°35'917.7
2017-Aug-14 01:01N 32°47' W 120°43'917.7
2017-Aug-14 00:30N 32°52' W 120°51'917.9
2017-Aug-14 00:00N 32°58' W 120°59'917.5
2017-Aug-13 23:30N 33°04' W 121°07'917.6
2017-Aug-13 23:00N 33°13' W 121°10'917.3
2017-Aug-13 22:30N 33°21' W 121°14'917.4
2017-Aug-13 22:00N 33°29' W 121°18'917.4
2017-Aug-13 21:30N 33°37' W 121°22'917.7
2017-Aug-13 21:00N 33°45' W 121°25'917.6
2017-Aug-13 20:30N 33°53' W 121°29'917.7
2017-Aug-13 20:00N 34°02' W 121°33'917.3
2017-Aug-13 19:30N 34°10' W 121°37'917.5
2017-Aug-13 19:00N 34°18' W 121°40'917.2
2017-Aug-13 18:30N 34°26' W 121°44'917.2
2017-Aug-13 18:00N 34°34' W 121°48'1017.7
2017-Aug-13 17:28N 34°43' W 121°52'818.1
2017-Aug-13 17:00N 34°50' W 121°56'917.9
2017-Aug-13 16:30N 34°59' W 121°60'917.7
2017-Aug-13 16:00N 35°07' W 122°04'917.6
2017-Aug-13 15:30N 35°15' W 122°07'917.4
2017-Aug-13 15:00N 35°23' W 122°11'917.0
2017-Aug-13 14:30N 35°31' W 122°15'816.8
2017-Aug-13 14:00N 35°39' W 122°19'917.2
2017-Aug-13 13:30N 35°47' W 122°22'817.0
2017-Aug-13 13:00N 35°55' W 122°27'917.2
2017-Aug-13 12:30N 36°02' W 122°33'917.5
2017-Aug-13 12:00N 36°08' W 122°40'917.6
2017-Aug-13 11:30N 36°15' W 122°47'917.4
2017-Aug-13 11:00N 36°22' W 122°54'917.3
2017-Aug-13 10:30N 36°28' W 123°02'917.2
2017-Aug-13 10:00N 36°35' W 123°08'917.0
2017-Aug-13 09:30N 36°41' W 123°15'817.0
2017-Aug-13 09:00N 36°48' W 123°22'816.6
2017-Aug-13 08:30N 36°54' W 123°29'816.8
2017-Aug-13 08:00N 37°00' W 123°36'917.0
2017-Aug-13 07:30N 37°08' W 123°40'817.2
2017-Aug-13 07:00N 37°16' W 123°44'917.4
2017-Aug-13 06:30N 37°24' W 123°48'917.3
2017-Aug-13 06:00N 37°32' W 123°52'917.2
2017-Aug-13 05:30N 37°40' W 123°55'917.8
2017-Aug-13 05:00N 37°49' W 123°59'918.0
2017-Aug-13 04:30N 37°57' W 124°04'917.9
2017-Aug-13 04:00N 38°05' W 124°08'917.6
2017-Aug-13 03:30N 38°14' W 124°12'917.7
2017-Aug-13 03:00N 38°22' W 124°15'917.1
2017-Aug-13 02:30N 38°30' W 124°20'917.0
2017-Aug-13 02:00N 38°38' W 124°24'917.6
2017-Aug-13 01:30N 38°46' W 124°28'917.9
2017-Aug-13 01:00N 38°54' W 124°32'917.7
2017-Aug-13 00:30N 39°03' W 124°36'917.7
2017-Aug-13 00:00N 39°11' W 124°40'917.6
2017-Aug-12 23:30N 39°19' W 124°44'16117.5
2017-Aug-12 14:20N 41°57' W 125°27'817.9
2017-Aug-12 13:54N 42°04' W 125°28'2817.5
2017-Aug-12 12:19N 42°32' W 125°32'717.5
2017-Aug-12 11:53N 42°39' W 125°33'1331.6
2017-Aug-12 11:28N 42°53' W 125°34'2 4.3
2017-Aug-12 11:00N 42°55' W 125°34'917.0
2017-Aug-12 10:30N 43°03' W 125°33'816.7
2017-Aug-12 10:00N 43°12' W 125°32'917.1
2017-Aug-12 09:30N 43°20' W 125°32'917.8
2017-Aug-12 09:00N 43°29' W 125°31'917.8
2017-Aug-12 08:30N 43°38' W 125°30'917.5
2017-Aug-12 08:00N 43°47' W 125°30'1617.1
2017-Aug-12 07:06N 44°02' W 125°28'117.1
2017-Aug-12 07:00N 44°04' W 125°28'917.2
2017-Aug-12 06:30N 44°12' W 125°27'816.8
2017-Aug-12 06:00N 44°21' W 125°27'917.3
2017-Aug-12 05:30N 44°29' W 125°26'1117.0
2017-Aug-12 04:51N 44°40' W 125°25'618.2
2017-Aug-12 04:30N 44°47' W 125°25'816.9
2017-Aug-12 04:00N 44°55' W 125°24'917.4
2017-Aug-12 03:30N 45°04' W 125°23'917.4
2017-Aug-12 03:00N 45°12' W 125°22'917.5
2017-Aug-12 02:29N 45°21' W 125°22'817.3
2017-Aug-12 02:00N 45°30' W 125°21'917.3
2017-Aug-12 01:29N 45°39' W 125°20'817.5
2017-Aug-12 01:00N 45°47' W 125°19'917.3
2017-Aug-12 00:30N 45°56' W 125°19'917.5
2017-Aug-12 00:00N 46°04' W 125°19'917.6
2017-Aug-11 23:30N 46°13' W 125°19'917.7
2017-Aug-11 23:00N 46°22' W 125°19'917.5
2017-Aug-11 22:30N 46°31' W 125°19'917.4
2017-Aug-11 22:00N 46°40' W 125°19'1217.2
2017-Aug-11 21:18N 46°52' W 125°20'517.2
2017-Aug-11 21:00N 46°57' W 125°20'917.6
2017-Aug-11 20:30N 47°06' W 125°20'917.4
2017-Aug-11 20:00N 47°14' W 125°20'917.5
2017-Aug-11 19:30N 47°23' W 125°20'917.2
2017-Aug-11 19:00N 47°32' W 125°20'917.0
2017-Aug-11 18:30N 47°40' W 125°20'917.5
2017-Aug-11 18:00N 47°49' W 125°20'917.3
2017-Aug-11 17:30N 47°57' W 125°16'917.7
2017-Aug-11 17:00N 48°06' W 125°15'918.1
2017-Aug-11 16:30N 48°15' W 125°11'817.0
2017-Aug-11 16:00N 48°23' W 125°08'816.7
2017-Aug-11 15:30N 48°30' W 125°03'816.9
2017-Aug-11 15:00N 48°31' W 124°50'917.4
2017-Aug-11 14:30N 48°29' W 124°37'1716.9
2017-Aug-11 13:30N 48°22' W 124°14'816.5
2017-Aug-11 13:00N 48°19' W 124°02'816.5
2017-Aug-11 12:30N 48°17' W 123°50'816.5
2017-Aug-11 12:00N 48°16' W 123°38'713.8
2017-Aug-11 11:30N 48°17' W 123°28'613.0
2017-Aug-11 11:00N 48°23' W 123°23'510.3
2017-Aug-11 10:30N 48°24' W 123°16'510.9
2017-Aug-11 10:00N 48°29' W 123°13'612.0
2017-Aug-11 09:30N 48°35' W 123°14'714.4
2017-Aug-11 09:01N 48°42' W 123°15'916.8
2017-Aug-11 08:30N 48°46' W 123°04'612.9
2017-Aug-11 08:00N 48°52' W 123°05'917.2
2017-Aug-11 07:30N 48°58' W 123°14'715.0
2017-Aug-11 07:00N 49°05' W 123°20'511.0
2017-Aug-11 06:30N 49°08' W 123°14'611.6
2017-Aug-11 06:00N 49°07' W 123°05'1 1.2
2017-Aug-11 05:27N 49°08' W 123°04'0 0.0
2017-Aug-11 04:45N 49°08' W 123°04'0 0.0
2017-Aug-11 03:15N 49°08' W 123°04'0 0.0
2017-Aug-11 02:45N 49°08' W 123°04'0 0.0
2017-Aug-11 02:24N 49°08' W 123°04'0 0.0
2017-Aug-10 23:57N 49°08' W 123°04'0 0.0
2017-Aug-10 23:27N 49°08' W 123°04'0 0.0
2017-Aug-10 23:00N 49°08' W 123°04'0 0.0
2017-Aug-10 22:30N 49°08' W 123°04'0 0.0
2017-Aug-10 22:00N 49°08' W 123°04'0 0.0
2017-Aug-10 21:30N 49°08' W 123°04'0 0.0
2017-Aug-10 21:00N 49°08' W 123°04'0 0.0
2017-Aug-10 20:27N 49°08' W 123°04'0 0.0
2017-Aug-10 19:57N 49°08' W 123°04'0 0.0
2017-Aug-10 19:27N 49°08' W 123°04'0 0.0
2017-Aug-10 18:57N 49°08' W 123°04'0 0.0
2017-Aug-10 18:30N 49°08' W 123°04'0 0.0
2017-Aug-10 18:00N 49°08' W 123°04'0 0.0
2017-Aug-10 17:15N 49°08' W 123°04'0 0.0
2017-Aug-10 16:45N 49°08' W 123°04'0 0.0
2017-Aug-10 16:24N 49°08' W 123°04'0 0.0
2017-Aug-10 15:57N 49°08' W 123°04'0 0.0
2017-Aug-10 15:27N 49°08' W 123°04'0 0.0
2017-Aug-10 15:00N 49°08' W 123°04'0 0.0
2017-Aug-10 14:21N 49°08' W 123°04'0 0.0
2017-Aug-10 13:45N 49°08' W 123°04'0 0.0
2017-Aug-10 13:27N 49°08' W 123°04'0 0.0
2017-Aug-10 13:00N 49°08' W 123°04'0 0.0
2017-Aug-10 12:30N 49°08' W 123°04'0 0.0
2017-Aug-10 11:57N 49°08' W 123°04'0 0.0
2017-Aug-10 11:09N 49°08' W 123°04'0 0.0
2017-Aug-10 10:57N 49°08' W 123°04'0 0.0
2017-Aug-10 10:21N 49°08' W 123°04'0 0.0
2017-Aug-10 09:57N 49°08' W 123°04'0 0.0
2017-Aug-10 09:30N 49°08' W 123°04'0 0.0
2017-Aug-10 08:57N 49°08' W 123°04'0 0.0
2017-Aug-10 08:30N 49°08' W 123°04'0 0.0
2017-Aug-10 07:54N 49°08' W 123°04'0 0.0
2017-Aug-10 07:24N 49°08' W 123°04'0 0.0
2017-Aug-10 07:00N 49°08' W 123°04'0 0.0
2017-Aug-10 06:27N 49°08' W 123°04'0 0.0
2017-Aug-10 05:54N 49°08' W 123°04'0 0.0
2017-Aug-10 05:30N 49°08' W 123°04'0 0.0
2017-Aug-10 05:00N 49°08' W 123°04'0 0.0
2017-Aug-10 04:30N 49°08' W 123°04'1 1.4
2017-Aug-10 03:55N 49°07' W 123°05'511.0
2017-Aug-10 03:30N 49°07' W 123°12'511.0
2017-Aug-10 03:00N 49°06' W 123°20'3 6.8
2017-Aug-10 02:30N 49°02' W 123°18'2 5.0
2017-Aug-10 02:00N 49°01' W 123°15'4 7.3
2017-Aug-10 01:30N 48°58' W 123°11'713.2
2017-Aug-10 01:00N 48°54' W 123°04'815.6
2017-Aug-10 00:30N 48°46' W 123°02'917.1
2017-Aug-10 00:00N 48°42' W 123°13'611.9
2017-Aug-09 23:30N 48°36' W 123°13'611.6
2017-Aug-09 23:00N 48°31' W 123°11'611.1
2017-Aug-09 22:30N 48°25' W 123°10'714.2
2017-Aug-09 22:00N 48°22' W 123°20'3 6.1
2017-Aug-09 21:30N 48°20' W 123°23'2 3.9
2017-Aug-09 21:00N 48°21' W 123°20'0 0.6
2017-Aug-09 20:30N 48°21' W 123°21'0 0.1
2017-Aug-09 19:59N 48°21' W 123°21'0 0.0
2017-Aug-09 19:29N 48°21' W 123°21'0 0.0
2017-Aug-09 18:59N 48°21' W 123°21'0 0.0
2017-Aug-09 18:29N 48°21' W 123°21'0 0.0
2017-Aug-09 17:59N 48°21' W 123°21'  
Track history (hours):
 
Tides and Currents Weather Stations Pressure Air Temp Water Temp Dewpoint Dewpoint Depression Visibility Wind Speed Wind Dir Waves Ship Positions

Mercury

Operator: Royal Caribbean Cruises Ltd

Last reported at 2017-Aug-19 17:50 UTC. Time now 2017-Aug-23 08:01 UTC.
Position N 35°31' W 131°44'.

Length 199 m; draft 7.4 m.

Type: Cargo ship. MMSI: 371862000.

Date/timePositionNaut miles runAvg speedWind from/ knotsBaromVisibWave heightAir tempDewpointWater temp
2017-Aug-19 17:50N 35°31' W 131°44'23516.9
2017-Aug-19 03:54N 33°34' W 127°37'13016.8
2017-Aug-18 20:10N 32°25' W 125°25'12916.8
2017-Aug-18 12:29N 31°16' W 123°17'916.4
2017-Aug-18 11:58N 31°11' W 123°09'816.7
2017-Aug-18 11:30N 31°07' W 123°02'816.4
2017-Aug-18 11:00N 31°02' W 122°54'1016.5
2017-Aug-18 10:24N 30°57' W 122°44'716.6
2017-Aug-18 09:59N 30°53' W 122°37'816.6
2017-Aug-18 09:30N 30°48' W 122°30'816.7
2017-Aug-18 09:00N 30°43' W 122°22'1016.5
2017-Aug-18 08:25N 30°38' W 122°12'716.2
2017-Aug-18 07:59N 30°34' W 122°06'1216.8
2017-Aug-18 07:17N 30°28' W 121°54'616.0
2017-Aug-18 06:53N 30°28' W 121°47'1116.8
2017-Aug-18 06:15N 30°30' W 121°35'416.9
2017-Aug-18 06:00N 30°31' W 121°30'1217.0
2017-Aug-18 05:16N 30°34' W 121°16'516.8
2017-Aug-18 05:00N 30°35' W 121°11'817.0
2017-Aug-18 04:30N 30°36' W 121°01'917.1
2017-Aug-18 03:58N 30°38' W 120°51'816.8
2017-Aug-18 03:30N 30°40' W 120°42'916.9
2017-Aug-18 03:00N 30°42' W 120°32'1016.8
2017-Aug-18 02:26N 30°44' W 120°22'716.8
2017-Aug-18 02:00N 30°45' W 120°13'917.1
2017-Aug-18 01:29N 30°47' W 120°03'817.0
2017-Aug-18 01:00N 30°49' W 119°54'917.1
2017-Aug-18 00:30N 30°51' W 119°44'816.9
2017-Aug-18 00:00N 30°53' W 119°34'816.8
2017-Aug-17 23:30N 30°55' W 119°25'917.3
2017-Aug-17 23:00N 30°56' W 119°15'917.5
2017-Aug-17 22:30N 30°58' W 119°05'917.5
2017-Aug-17 22:00N 30°60' W 118°55'917.5
2017-Aug-17 21:30N 31°02' W 118°45'917.7
2017-Aug-17 21:00N 31°04' W 118°35'917.1
2017-Aug-17 20:30N 31°11' W 118°29'917.6
2017-Aug-17 20:00N 31°18' W 118°23'917.8
2017-Aug-17 19:30N 31°25' W 118°17'917.8
2017-Aug-17 19:00N 31°32' W 118°11'917.8
2017-Aug-17 18:30N 31°39' W 118°04'917.4
2017-Aug-17 18:00N 31°46' W 117°58'917.3
2017-Aug-17 17:30N 31°53' W 117°52'917.5
2017-Aug-17 17:00N 32°00' W 117°46'917.4
2017-Aug-17 16:30N 32°07' W 117°40'917.3
2017-Aug-17 16:00N 32°14' W 117°34'714.9
2017-Aug-17 15:30N 32°20' W 117°29'611.0
2017-Aug-17 15:00N 32°25' W 117°25'510.5
2017-Aug-17 14:30N 32°29' W 117°21'510.7
2017-Aug-17 14:00N 32°33' W 117°17'510.6
2017-Aug-17 13:30N 32°38' W 117°14'4 8.5
2017-Aug-17 13:00N 32°42' W 117°14'4 7.6
2017-Aug-17 12:30N 32°42' W 117°09'3 6.1
2017-Aug-17 12:00N 32°39' W 117°07'0 0.0
2017-Aug-17 11:30N 32°39' W 117°07'0 0.0
2017-Aug-17 11:00N 32°39' W 117°07'0 0.0
2017-Aug-17 10:28N 32°39' W 117°07'0 0.0
2017-Aug-17 09:58N 32°39' W 117°07'0 0.0
2017-Aug-17 09:28N 32°39' W 117°07'0 0.0
2017-Aug-17 08:58N 32°39' W 117°07'0 0.0
2017-Aug-17 08:28N 32°39' W 117°07'0 0.0
2017-Aug-17 07:58N 32°39' W 117°07'0 0.0
2017-Aug-17 07:28N 32°39' W 117°07'0 0.0
2017-Aug-17 06:55N 32°39' W 117°07'0 0.0
2017-Aug-17 06:25N 32°39' W 117°07'0 0.0
2017-Aug-17 05:58N 32°39' W 117°07'0 0.0
2017-Aug-17 05:28N 32°39' W 117°07'0 0.0
2017-Aug-17 04:58N 32°39' W 117°07'0 0.0
2017-Aug-17 04:28N 32°39' W 117°07'0 0.0
2017-Aug-17 03:58N 32°39' W 117°07'0 0.0
2017-Aug-17 03:28N 32°39' W 117°07'0 0.0
2017-Aug-17 02:58N 32°39' W 117°07'0 0.0
2017-Aug-17 02:28N 32°39' W 117°07'0 0.0
2017-Aug-17 01:58N 32°39' W 117°07'0 0.0
2017-Aug-17 01:25N 32°39' W 117°07'0 0.0
2017-Aug-17 00:58N 32°39' W 117°07'0 0.0
2017-Aug-17 00:28N 32°39' W 117°07'0 0.0
2017-Aug-16 23:55N 32°39' W 117°07'0 0.0
2017-Aug-16 23:28N 32°39' W 117°07'0 0.0
2017-Aug-16 22:58N 32°39' W 117°07'0 0.1
2017-Aug-16 22:30N 32°39' W 117°07'2 4.7
2017-Aug-16 22:00N 32°41' W 117°09'4 8.8
2017-Aug-16 21:30N 32°42' W 117°14'4 8.9
2017-Aug-16 21:00N 32°37' W 117°13'1 2.0
2017-Aug-16 20:31N 32°37' W 117°12'1 2.3
2017-Aug-16 20:00N 32°38' W 117°12'0 0.0
2017-Aug-16 19:30N 32°38' W 117°12'0 0.0
2017-Aug-16 19:00N 32°38' W 117°12'0 0.0
2017-Aug-16 18:30N 32°38' W 117°12'0 0.0
2017-Aug-16 18:00N 32°38' W 117°12'0 0.0
2017-Aug-16 17:30N 32°38' W 117°12'0 0.0
2017-Aug-16 17:00N 32°38' W 117°12'0 0.0
2017-Aug-16 16:30N 32°38' W 117°12'0 0.0
2017-Aug-16 16:00N 32°38' W 117°12'0 0.0
2017-Aug-16 15:30N 32°38' W 117°12'0 0.0
2017-Aug-16 15:00N 32°38' W 117°12'0 0.0
2017-Aug-16 14:30N 32°38' W 117°12'0 0.0
2017-Aug-16 14:00N 32°38' W 117°12'0 0.0
2017-Aug-16 13:30N 32°38' W 117°12'0 0.0
2017-Aug-16 13:00N 32°38' W 117°12'0 0.1
2017-Aug-16 12:24N 32°38' W 117°12'0 0.0
2017-Aug-16 12:00N 32°38' W 117°12'0 0.0
2017-Aug-16 11:30N 32°38' W 117°12'0 0.0
2017-Aug-16 11:00N 32°38' W 117°12'0 0.0
2017-Aug-16 10:30N 32°38' W 117°12'0 0.0
2017-Aug-16 10:00N 32°38' W 117°12'0 0.0
2017-Aug-16 09:30N 32°38' W 117°12'0 0.0
2017-Aug-16 09:00N 32°38' W 117°12'0 0.1
2017-Aug-16 08:27N 32°38' W 117°12'0 0.0
2017-Aug-16 08:00N 32°38' W 117°12'0 0.0
2017-Aug-16 07:30N 32°38' W 117°12'0 0.0
2017-Aug-16 07:00N 32°38' W 117°12'0 0.0
2017-Aug-16 06:30N 32°38' W 117°12'0 0.0
2017-Aug-16 05:57N 32°38' W 117°12'0 0.0
2017-Aug-16 05:30N 32°38' W 117°12'0 0.0
2017-Aug-16 05:00N 32°38' W 117°12'0 0.0
2017-Aug-16 04:30N 32°38' W 117°12'0 0.0
2017-Aug-16 04:00N 32°38' W 117°12'0 0.0
2017-Aug-16 03:30N 32°38' W 117°12'0 0.0
2017-Aug-16 03:00N 32°38' W 117°12'0 0.0
2017-Aug-16 02:30N 32°38' W 117°12'0 0.0
2017-Aug-16 02:00N 32°38' W 117°12'0 0.0
2017-Aug-16 01:27N 32°38' W 117°12'0 0.0
2017-Aug-16 01:00N 32°38' W 117°12'0 0.0
2017-Aug-16 00:30N 32°38' W 117°12'0 0.1
2017-Aug-15 23:54N 32°38' W 117°12'0 0.0
2017-Aug-15 23:30N 32°38' W 117°12'0 0.0
2017-Aug-15 23:00N 32°38' W 117°12'0 0.0
2017-Aug-15 22:30N 32°38' W 117°12'0 0.0
2017-Aug-15 22:00N 32°38' W 117°12'0 0.0
2017-Aug-15 21:30N 32°38' W 117°12'0 0.0
2017-Aug-15 21:00N 32°38' W 117°12'0 0.0
2017-Aug-15 20:27N 32°38' W 117°12'0 0.1
2017-Aug-15 20:00N 32°38' W 117°12'0 0.0
2017-Aug-15 19:30N 32°38' W 117°12'0 0.0
2017-Aug-15 19:00N 32°38' W 117°12'0 0.0
2017-Aug-15 18:30N 32°38' W 117°12'0 0.0
2017-Aug-15 18:00N 32°38' W 117°12'0 0.0
2017-Aug-15 17:30N 32°38' W 117°12'0 0.0
2017-Aug-15 17:00N 32°38' W 117°12'0 0.0
2017-Aug-15 16:30N 32°38' W 117°12'0 0.0
2017-Aug-15 16:00N 32°38' W 117°12'0 0.0
2017-Aug-15 15:30N 32°38' W 117°12'0 0.0
2017-Aug-15 15:00N 32°38' W 117°12'0 0.0
2017-Aug-15 14:30N 32°38' W 117°12'0 0.0
2017-Aug-15 14:00N 32°38' W 117°12'0 0.0
2017-Aug-15 13:30N 32°38' W 117°12'0 0.0
2017-Aug-15 12:48N 32°38' W 117°12'0 0.0
2017-Aug-15 12:30N 32°38' W 117°12'0 0.1
2017-Aug-15 12:00N 32°38' W 117°12'0 0.0
2017-Aug-15 11:30N 32°38' W 117°12'0 0.0
2017-Aug-15 11:00N 32°38' W 117°12'0 0.1
2017-Aug-15 10:30N 32°38' W 117°12'0 0.0
2017-Aug-15 10:00N 32°38' W 117°12'0 0.0
2017-Aug-15 09:30N 32°38' W 117°12'0 0.0
2017-Aug-15 09:00N 32°38' W 117°12'0 0.0
2017-Aug-15 08:30N 32°38' W 117°12'0 0.0
2017-Aug-15 08:00N 32°38' W 117°12'0 0.0
2017-Aug-15 07:30N 32°38' W 117°12'0 0.0
2017-Aug-15 07:00N 32°38' W 117°12'0 0.0
2017-Aug-15 06:30N 32°38' W 117°12'0 0.0
2017-Aug-15 06:00N 32°38' W 117°12'0 0.0
2017-Aug-15 05:30N 32°38' W 117°12'0 0.0
2017-Aug-15 05:00N 32°38' W 117°12'0 0.0
2017-Aug-15 04:30N 32°38' W 117°12'0 0.0
2017-Aug-15 04:00N 32°38' W 117°12'0 0.0
2017-Aug-15 03:30N 32°38' W 117°12'0 0.0
2017-Aug-15 03:00N 32°38' W 117°12'0 0.0
2017-Aug-15 02:30N 32°38' W 117°12'0 0.0
2017-Aug-15 02:00N 32°38' W 117°12'0 0.0
2017-Aug-15 01:30N 32°38' W 117°12'0 0.0
2017-Aug-15 01:00N 32°38' W 117°12'0 0.0
2017-Aug-15 00:30N 32°38' W 117°12'0 0.0
2017-Aug-15 00:00N 32°38' W 117°12'0 0.0
2017-Aug-14 23:30N 32°38' W 117°12'0 0.0
2017-Aug-14 23:00N 32°38' W 117°12'0 0.0
2017-Aug-14 22:30N 32°38' W 117°12'0 0.0
2017-Aug-14 22:00N 32°38' W 117°12'0 0.0
2017-Aug-14 21:30N 32°38' W 117°12'0 0.0
2017-Aug-14 21:00N 32°38' W 117°12'0 0.0
2017-Aug-14 20:30N 32°38' W 117°12'0 0.0
2017-Aug-14 20:00N 32°38' W 117°12'0 0.0
2017-Aug-14 19:30N 32°38' W 117°12'0 0.0
2017-Aug-14 19:00N 32°38' W 117°12'0 0.0
2017-Aug-14 18:30N 32°38' W 117°12'0 0.0
2017-Aug-14 18:00N 32°38' W 117°12'0 0.0
2017-Aug-14 17:30N 32°38' W 117°12'0 0.0
2017-Aug-14 17:00N 32°38' W 117°12'0 0.0
2017-Aug-14 16:30N 32°38' W 117°12'0 0.0
2017-Aug-14 16:00N 32°38' W 117°12'0 0.0
2017-Aug-14 15:30N 32°38' W 117°12'0 0.0
2017-Aug-14 15:00N 32°38' W 117°12'0 0.0
2017-Aug-14 14:30N 32°38' W 117°12'0 0.1
2017-Aug-14 14:00N 32°38' W 117°12'0 0.0
2017-Aug-14 13:30N 32°38' W 117°12'0 0.2
2017-Aug-14 13:00N 32°38' W 117°12'4 8.0
2017-Aug-14 12:30N 32°37' W 117°16'611.2
2017-Aug-14 12:00N 32°38' W 117°23'611.9
2017-Aug-14 11:30N 32°38' W 117°30'611.6
2017-Aug-14 11:00N 32°38' W 117°37'611.9
2017-Aug-14 10:30N 32°39' W 117°44'815.3
2017-Aug-14 10:00N 32°40' W 117°53'816.6
2017-Aug-14 09:31N 32°38' W 118°02'816.9
2017-Aug-14 09:01N 32°38' W 118°12'816.8
2017-Aug-14 08:31N 32°38' W 118°22'816.9
2017-Aug-14 08:01N 32°38' W 118°32'816.9
2017-Aug-14 07:31N 32°38' W 118°42'917.2
2017-Aug-14 07:01N 32°38' W 118°53'917.0
2017-Aug-14 06:30N 32°38' W 119°03'917.1
2017-Aug-14 06:00N 32°38' W 119°13'917.6
2017-Aug-14 05:30N 32°38' W 119°23'917.5
2017-Aug-14 05:00N 32°38' W 119°34'917.3
2017-Aug-14 04:31N 32°38' W 119°44'917.4
2017-Aug-14 04:00N 32°38' W 119°54'917.1
2017-Aug-14 03:30N 32°38' W 120°04'816.4
2017-Aug-14 03:01N 32°38' W 120°14'815.5
2017-Aug-14 02:30N 32°38' W 120°23'3 6.7
2017-Aug-14 02:00N 32°38' W 120°27'714.7
2017-Aug-14 01:30N 32°41' W 120°35'917.7
2017-Aug-14 01:01N 32°47' W 120°43'917.7
2017-Aug-14 00:30N 32°52' W 120°51'917.9
2017-Aug-14 00:00N 32°58' W 120°59'917.5
2017-Aug-13 23:30N 33°04' W 121°07'917.6
2017-Aug-13 23:00N 33°13' W 121°10'917.3
2017-Aug-13 22:30N 33°21' W 121°14'917.4
2017-Aug-13 22:00N 33°29' W 121°18'917.4
2017-Aug-13 21:30N 33°37' W 121°22'917.7
2017-Aug-13 21:00N 33°45' W 121°25'917.6
2017-Aug-13 20:30N 33°53' W 121°29'917.7
2017-Aug-13 20:00N 34°02' W 121°33'917.3
2017-Aug-13 19:30N 34°10' W 121°37'917.5
2017-Aug-13 19:00N 34°18' W 121°40'917.2
2017-Aug-13 18:30N 34°26' W 121°44'917.2
2017-Aug-13 18:00N 34°34' W 121°48'1017.7
2017-Aug-13 17:28N 34°43' W 121°52'818.1
2017-Aug-13 17:00N 34°50' W 121°56'917.9
2017-Aug-13 16:30N 34°59' W 121°60'917.7
2017-Aug-13 16:00N 35°07' W 122°04'917.6
2017-Aug-13 15:30N 35°15' W 122°07'917.4
2017-Aug-13 15:00N 35°23' W 122°11'917.0
2017-Aug-13 14:30N 35°31' W 122°15'816.8
2017-Aug-13 14:00N 35°39' W 122°19'917.2
2017-Aug-13 13:30N 35°47' W 122°22'817.0
2017-Aug-13 13:00N 35°55' W 122°27'917.2
2017-Aug-13 12:30N 36°02' W 122°33'917.5
2017-Aug-13 12:00N 36°08' W 122°40'917.6
2017-Aug-13 11:30N 36°15' W 122°47'917.4
2017-Aug-13 11:00N 36°22' W 122°54'917.3
2017-Aug-13 10:30N 36°28' W 123°02'917.2
2017-Aug-13 10:00N 36°35' W 123°08'917.0
2017-Aug-13 09:30N 36°41' W 123°15'817.0
2017-Aug-13 09:00N 36°48' W 123°22'816.6
2017-Aug-13 08:30N 36°54' W 123°29'816.8
2017-Aug-13 08:00N 37°00' W 123°36'917.0
2017-Aug-13 07:30N 37°08' W 123°40'817.2
2017-Aug-13 07:00N 37°16' W 123°44'917.4
2017-Aug-13 06:30N 37°24' W 123°48'917.3
2017-Aug-13 06:00N 37°32' W 123°52'917.2
2017-Aug-13 05:30N 37°40' W 123°55'917.8
2017-Aug-13 05:00N 37°49' W 123°59'918.0
2017-Aug-13 04:30N 37°57' W 124°04'917.9
2017-Aug-13 04:00N 38°05' W 124°08'917.6
2017-Aug-13 03:30N 38°14' W 124°12'917.7
2017-Aug-13 03:00N 38°22' W 124°15'917.1
2017-Aug-13 02:30N 38°30' W 124°20'917.0
2017-Aug-13 02:00N 38°38' W 124°24'917.6
2017-Aug-13 01:30N 38°46' W 124°28'917.9
2017-Aug-13 01:00N 38°54' W 124°32'917.7
2017-Aug-13 00:30N 39°03' W 124°36'917.7
2017-Aug-13 00:00N 39°11' W 124°40'917.6
2017-Aug-12 23:30N 39°19' W 124°44'16117.5
2017-Aug-12 14:20N 41°57' W 125°27'817.9
2017-Aug-12 13:54N 42°04' W 125°28'2817.5
2017-Aug-12 12:19N 42°32' W 125°32'717.5
2017-Aug-12 11:53N 42°39' W 125°33'1331.6
2017-Aug-12 11:28N 42°53' W 125°34'2 4.3
2017-Aug-12 11:00N 42°55' W 125°34'917.0
2017-Aug-12 10:30N 43°03' W 125°33'816.7
2017-Aug-12 10:00N 43°12' W 125°32'917.1
2017-Aug-12 09:30N 43°20' W 125°32'917.8
2017-Aug-12 09:00N 43°29' W 125°31'917.8
2017-Aug-12 08:30N 43°38' W 125°30'917.5
2017-Aug-12 08:00N 43°47' W 125°30'1617.1
2017-Aug-12 07:06N 44°02' W 125°28'117.1
2017-Aug-12 07:00N 44°04' W 125°28'917.2
2017-Aug-12 06:30N 44°12' W 125°27'816.8
2017-Aug-12 06:00N 44°21' W 125°27'917.3
2017-Aug-12 05:30N 44°29' W 125°26'1117.0
2017-Aug-12 04:51N 44°40' W 125°25'618.2
2017-Aug-12 04:30N 44°47' W 125°25'816.9
2017-Aug-12 04:00N 44°55' W 125°24'917.4
2017-Aug-12 03:30N 45°04' W 125°23'917.4
2017-Aug-12 03:00N 45°12' W 125°22'917.5
2017-Aug-12 02:29N 45°21' W 125°22'817.3
2017-Aug-12 02:00N 45°30' W 125°21'917.3
2017-Aug-12 01:29N 45°39' W 125°20'817.5
2017-Aug-12 01:00N 45°47' W 125°19'917.3
2017-Aug-12 00:30N 45°56' W 125°19'917.5
2017-Aug-12 00:00N 46°04' W 125°19'917.6
2017-Aug-11 23:30N 46°13' W 125°19'917.7
2017-Aug-11 23:00N 46°22' W 125°19'917.5
2017-Aug-11 22:30N 46°31' W 125°19'917.4
2017-Aug-11 22:00N 46°40' W 125°19'1217.2
2017-Aug-11 21:18N 46°52' W 125°20'517.2
2017-Aug-11 21:00N 46°57' W 125°20'917.6
2017-Aug-11 20:30N 47°06' W 125°20'917.4
2017-Aug-11 20:00N 47°14' W 125°20'917.5
2017-Aug-11 19:30N 47°23' W 125°20'917.2
2017-Aug-11 19:00N 47°32' W 125°20'917.0
2017-Aug-11 18:30N 47°40' W 125°20'917.5
2017-Aug-11 18:00N 47°49' W 125°20'917.3
2017-Aug-11 17:30N 47°57' W 125°16'917.7
2017-Aug-11 17:00N 48°06' W 125°15'918.1
2017-Aug-11 16:30N 48°15' W 125°11'817.0
2017-Aug-11 16:00N 48°23' W 125°08'816.7
2017-Aug-11 15:30N 48°30' W 125°03'816.9
2017-Aug-11 15:00N 48°31' W 124°50'917.4
2017-Aug-11 14:30N 48°29' W 124°37'1716.9
2017-Aug-11 13:30N 48°22' W 124°14'816.5
2017-Aug-11 13:00N 48°19' W 124°02'816.5
2017-Aug-11 12:30N 48°17' W 123°50'816.5
2017-Aug-11 12:00N 48°16' W 123°38'713.8
2017-Aug-11 11:30N 48°17' W 123°28'613.0
2017-Aug-11 11:00N 48°23' W 123°23'510.3
2017-Aug-11 10:30N 48°24' W 123°16'510.9
2017-Aug-11 10:00N 48°29' W 123°13'612.0
2017-Aug-11 09:30N 48°35' W 123°14'714.4
2017-Aug-11 09:01N 48°42' W 123°15'916.8
2017-Aug-11 08:30N 48°46' W 123°04'612.9
2017-Aug-11 08:00N 48°52' W 123°05'917.2
2017-Aug-11 07:30N 48°58' W 123°14'715.0
2017-Aug-11 07:00N 49°05' W 123°20'511.0
2017-Aug-11 06:30N 49°08' W 123°14'611.6
2017-Aug-11 06:00N 49°07' W 123°05'1 1.2
2017-Aug-11 05:27N 49°08' W 123°04'0 0.0
2017-Aug-11 04:45N 49°08' W 123°04'0 0.0
2017-Aug-11 03:15N 49°08' W 123°04'0 0.0
2017-Aug-11 02:45N 49°08' W 123°04'0 0.0
2017-Aug-11 02:24N 49°08' W 123°04'0 0.0
2017-Aug-10 23:57N 49°08' W 123°04'0 0.0
2017-Aug-10 23:27N 49°08' W 123°04'0 0.0
2017-Aug-10 23:00N 49°08' W 123°04'0 0.0
2017-Aug-10 22:30N 49°08' W 123°04'0 0.0
2017-Aug-10 22:00N 49°08' W 123°04'0 0.0
2017-Aug-10 21:30N 49°08' W 123°04'0 0.0
2017-Aug-10 21:00N 49°08' W 123°04'0 0.0
2017-Aug-10 20:27N 49°08' W 123°04'0 0.0
2017-Aug-10 19:57N 49°08' W 123°04'0 0.0
2017-Aug-10 19:27N 49°08' W 123°04'0 0.0
2017-Aug-10 18:57N 49°08' W 123°04'0 0.0
2017-Aug-10 18:30N 49°08' W 123°04'0 0.0
2017-Aug-10 18:00N 49°08' W 123°04'0 0.0
2017-Aug-10 17:15N 49°08' W 123°04'0 0.0
2017-Aug-10 16:45N 49°08' W 123°04'0 0.0
2017-Aug-10 16:24N 49°08' W 123°04'0 0.0
2017-Aug-10 15:57N 49°08' W 123°04'0 0.0
2017-Aug-10 15:27N 49°08' W 123°04'0 0.0
2017-Aug-10 15:00N 49°08' W 123°04'0 0.0
2017-Aug-10 14:21N 49°08' W 123°04'0 0.0
2017-Aug-10 13:45N 49°08' W 123°04'0 0.0
2017-Aug-10 13:27N 49°08' W 123°04'0 0.0
2017-Aug-10 13:00N 49°08' W 123°04'0 0.0
2017-Aug-10 12:30N 49°08' W 123°04'0 0.0
2017-Aug-10 11:57N 49°08' W 123°04'0 0.0
2017-Aug-10 11:09N 49°08' W 123°04'0 0.0
2017-Aug-10 10:57N 49°08' W 123°04'0 0.0
2017-Aug-10 10:21N 49°08' W 123°04'0 0.0
2017-Aug-10 09:57N 49°08' W 123°04'0 0.0
2017-Aug-10 09:30N 49°08' W 123°04'0 0.0
2017-Aug-10 08:57N 49°08' W 123°04'0 0.0
2017-Aug-10 08:30N 49°08' W 123°04'0 0.0
2017-Aug-10 07:54N 49°08' W 123°04'0 0.0
2017-Aug-10 07:24N 49°08' W 123°04'0 0.0
2017-Aug-10 07:00N 49°08' W 123°04'0 0.0
2017-Aug-10 06:27N 49°08' W 123°04'0 0.0
2017-Aug-10 05:54N 49°08' W 123°04'0 0.0
2017-Aug-10 05:30N 49°08' W 123°04'0 0.0
2017-Aug-10 05:00N 49°08' W 123°04'0 0.0
2017-Aug-10 04:30N 49°08' W 123°04'1 1.4
2017-Aug-10 03:55N 49°07' W 123°05'511.0
2017-Aug-10 03:30N 49°07' W 123°12'511.0
2017-Aug-10 03:00N 49°06' W 123°20'3 6.8
2017-Aug-10 02:30N 49°02' W 123°18'2 5.0
2017-Aug-10 02:00N 49°01' W 123°15'4 7.3
2017-Aug-10 01:30N 48°58' W 123°11'713.2
2017-Aug-10 01:00N 48°54' W 123°04'815.6
2017-Aug-10 00:30N 48°46' W 123°02'917.1
2017-Aug-10 00:00N 48°42' W 123°13'611.9
2017-Aug-09 23:30N 48°36' W 123°13'611.6
2017-Aug-09 23:00N 48°31' W 123°11'611.1
2017-Aug-09 22:30N 48°25' W 123°10'714.2
2017-Aug-09 22:00N 48°22' W 123°20'3 6.1
2017-Aug-09 21:30N 48°20' W 123°23'2 3.9
2017-Aug-09 21:00N 48°21' W 123°20'0 0.6
2017-Aug-09 20:30N 48°21' W 123°21'0 0.1
2017-Aug-09 19:59N 48°21' W 123°21'0 0.0
2017-Aug-09 19:29N 48°21' W 123°21'0 0.0
2017-Aug-09 18:59N 48°21' W 123°21'0 0.0
2017-Aug-09 18:29N 48°21' W 123°21'0 0.0
2017-Aug-09 17:59N 48°21' W 123°21'  

Dump ship's entire track history